sensor_id;sensor_type;location;lat;lon;timestamp;pressure;altitude;pressure_sealevel;temperature;humidity
65013;BME280;51715;39.432;-77.518;2023-12-14T00:01:20;101541.20;;;3.62;29.68
65013;BME280;51715;39.432;-77.518;2023-12-14T00:03:48;101541.35;;;3.52;29.86
65013;BME280;51715;39.432;-77.518;2023-12-14T00:06:16;101541.44;;;3.57;28.27
65013;BME280;51715;39.432;-77.518;2023-12-14T00:08:44;101541.95;;;3.77;28.49
65013;BME280;51715;39.432;-77.518;2023-12-14T00:11:14;101545.80;;;3.78;27.39
65013;BME280;51715;39.432;-77.518;2023-12-14T00:13:42;101548.93;;;3.24;27.03
65013;BME280;51715;39.432;-77.518;2023-12-14T00:16:10;101556.56;;;4.05;26.56
65013;BME280;51715;39.432;-77.518;2023-12-14T00:18:39;101560.90;;;4.24;26.12
65013;BME280;51715;39.432;-77.518;2023-12-14T00:21:07;101561.60;;;4.66;25.82
65013;BME280;51715;39.432;-77.518;2023-12-14T00:23:35;101558.16;;;5.01;24.71
65013;BME280;51715;39.432;-77.518;2023-12-14T00:26:05;101559.90;;;5.20;24.19
65013;BME280;51715;39.432;-77.518;2023-12-14T00:28:33;101561.80;;;5.48;23.85
65013;BME280;51715;39.432;-77.518;2023-12-14T00:31:02;101569.07;;;5.47;23.58
65013;BME280;51715;39.432;-77.518;2023-12-14T00:33:31;101570.48;;;5.37;23.51
65013;BME280;51715;39.432;-77.518;2023-12-14T00:35:59;101574.74;;;4.67;24.47
65013;BME280;51715;39.432;-77.518;2023-12-14T00:38:28;101579.46;;;5.00;23.89
65013;BME280;51715;39.432;-77.518;2023-12-14T00:40:57;101581.25;;;5.11;24.07
65013;BME280;51715;39.432;-77.518;2023-12-14T00:43:24;101586.63;;;5.31;23.74
65013;BME280;51715;39.432;-77.518;2023-12-14T00:45:52;101584.78;;;4.15;24.47
65013;BME280;51715;39.432;-77.518;2023-12-14T00:48:21;101587.89;;;4.89;24.21
65013;BME280;51715;39.432;-77.518;2023-12-14T00:50:48;101588.51;;;5.63;23.90
65013;BME280;51715;39.432;-77.518;2023-12-14T00:53:16;101584.37;;;5.61;24.20
65013;BME280;51715;39.432;-77.518;2023-12-14T00:55:44;101585.78;;;5.86;24.17
65013;BME280;51715;39.432;-77.518;2023-12-14T00:58:13;101590.14;;;5.84;23.09
65013;BME280;51715;39.432;-77.518;2023-12-14T01:00:41;101589.45;;;6.08;23.29
65013;BME280;51715;39.432;-77.518;2023-12-14T01:03:09;101586.73;;;6.20;23.50
65013;BME280;51715;39.432;-77.518;2023-12-14T01:05:38;101584.78;;;6.13;23.26
65013;BME280;51715;39.432;-77.518;2023-12-14T01:08:06;101583.53;;;6.18;22.82
65013;BME280;51715;39.432;-77.518;2023-12-14T01:10:35;101588.30;;;6.30;22.91
65013;BME280;51715;39.432;-77.518;2023-12-14T01:13:03;101588.59;;;6.18;22.71
65013;BME280;51715;39.432;-77.518;2023-12-14T01:15:31;101589.01;;;6.23;22.53
65013;BME280;51715;39.432;-77.518;2023-12-14T01:18:00;101589.96;;;5.41;23.28
65013;BME280;51715;39.432;-77.518;2023-12-14T01:20:28;101589.49;;;6.06;22.81
65013;BME280;51715;39.432;-77.518;2023-12-14T01:22:57;101586.72;;;5.89;23.05
65013;BME280;51715;39.432;-77.518;2023-12-14T01:25:25;101582.05;;;6.01;23.30
65013;BME280;51715;39.432;-77.518;2023-12-14T01:27:53;101580.11;;;5.80;23.77
65013;BME280;51715;39.432;-77.518;2023-12-14T01:30:21;101582.95;;;6.13;23.35
65013;BME280;51715;39.432;-77.518;2023-12-14T01:32:49;101583.04;;;6.05;24.07
65013;BME280;51715;39.432;-77.518;2023-12-14T01:35:17;101581.23;;;5.47;23.88
65013;BME280;51715;39.432;-77.518;2023-12-14T01:37:46;101583.08;;;5.93;23.99
65013;BME280;51715;39.432;-77.518;2023-12-14T01:40:14;101583.06;;;5.56;24.70
65013;BME280;51715;39.432;-77.518;2023-12-14T01:42:43;101584.93;;;5.42;25.53
65013;BME280;51715;39.432;-77.518;2023-12-14T01:45:12;101588.26;;;5.31;25.17
65013;BME280;51715;39.432;-77.518;2023-12-14T01:47:41;101585.59;;;5.40;26.06
65013;BME280;51715;39.432;-77.518;2023-12-14T01:50:09;101584.95;;;5.01;25.72
65013;BME280;51715;39.432;-77.518;2023-12-14T01:52:37;101589.06;;;5.20;26.53
65013;BME280;51715;39.432;-77.518;2023-12-14T01:55:06;101593.07;;;4.89;26.27
65013;BME280;51715;39.432;-77.518;2023-12-14T01:57:34;101593.21;;;4.75;26.23
65013;BME280;51715;39.432;-77.518;2023-12-14T02:00:04;101592.84;;;4.86;26.30
65013;BME280;51715;39.432;-77.518;2023-12-14T02:02:32;101589.22;;;4.71;26.29
65013;BME280;51715;39.432;-77.518;2023-12-14T02:05:01;101593.23;;;4.61;26.26
65013;BME280;51715;39.432;-77.518;2023-12-14T02:07:29;101597.09;;;4.22;27.52
65013;BME280;51715;39.432;-77.518;2023-12-14T02:09:57;101598.91;;;4.59;27.55
65013;BME280;51715;39.432;-77.518;2023-12-14T02:12:26;101604.73;;;4.15;27.90
65013;BME280;51715;39.432;-77.518;2023-12-14T02:14:57;101608.53;;;4.30;27.97
65013;BME280;51715;39.432;-77.518;2023-12-14T02:17:25;101608.55;;;4.09;28.37
65013;BME280;51715;39.432;-77.518;2023-12-14T02:19:54;101613.25;;;3.91;28.96
65013;BME280;51715;39.432;-77.518;2023-12-14T02:22:22;101624.73;;;3.53;29.12
65013;BME280;51715;39.432;-77.518;2023-12-14T02:24:51;101632.33;;;3.07;30.43
65013;BME280;51715;39.432;-77.518;2023-12-14T02:27:20;101634.18;;;3.28;30.64
65013;BME280;51715;39.432;-77.518;2023-12-14T02:29:48;101642.34;;;3.14;30.96
65013;BME280;51715;39.432;-77.518;2023-12-14T02:32:17;101645.87;;;2.97;30.74
65013;BME280;51715;39.432;-77.518;2023-12-14T02:34:45;101647.46;;;2.60;31.33
65013;BME280;51715;39.432;-77.518;2023-12-14T02:37:14;101650.54;;;2.38;31.86
65013;BME280;51715;39.432;-77.518;2023-12-14T02:39:41;101654.14;;;2.13;32.39
65013;BME280;51715;39.432;-77.518;2023-12-14T02:42:10;101655.46;;;2.65;31.78
65013;BME280;51715;39.432;-77.518;2023-12-14T02:44:39;101656.34;;;2.53;31.95
65013;BME280;51715;39.432;-77.518;2023-12-14T02:47:08;101659.68;;;2.38;31.62
65013;BME280;51715;39.432;-77.518;2023-12-14T02:49:36;101666.90;;;2.89;31.10
65013;BME280;51715;39.432;-77.518;2023-12-14T02:52:05;101671.69;;;2.83;31.33
65013;BME280;51715;39.432;-77.518;2023-12-14T02:54:33;101668.38;;;2.79;31.41
65013;BME280;51715;39.432;-77.518;2023-12-14T02:57:01;101669.01;;;2.55;31.20
65013;BME280;51715;39.432;-77.518;2023-12-14T02:59:30;101669.68;;;2.77;31.56
65013;BME280;51715;39.432;-77.518;2023-12-14T03:01:59;101675.75;;;2.64;31.08
65013;BME280;51715;39.432;-77.518;2023-12-14T03:04:28;101675.81;;;2.72;31.19
65013;BME280;51715;39.432;-77.518;2023-12-14T03:06:56;101675.01;;;2.66;31.36
65013;BME280;51715;39.432;-77.518;2023-12-14T03:09:24;101677.77;;;2.52;31.58
65013;BME280;51715;39.432;-77.518;2023-12-14T03:11:53;101682.95;;;2.27;32.16
65013;BME280;51715;39.432;-77.518;2023-12-14T03:14:22;101690.08;;;2.32;31.93
65013;BME280;51715;39.432;-77.518;2023-12-14T03:16:51;101695.33;;;2.39;31.90
65013;BME280;51715;39.432;-77.518;2023-12-14T03:19:19;101703.07;;;2.37;32.18
65013;BME280;51715;39.432;-77.518;2023-12-14T03:21:48;101711.35;;;2.19;32.20
65013;BME280;51715;39.432;-77.518;2023-12-14T03:24:16;101716.06;;;2.40;32.12
65013;BME280;51715;39.432;-77.518;2023-12-14T03:26:44;101714.26;;;2.35;32.08
65013;BME280;51715;39.432;-77.518;2023-12-14T03:29:12;101718.82;;;2.18;32.45
65013;BME280;51715;39.432;-77.518;2023-12-14T03:31:40;101720.09;;;2.22;32.48
65013;BME280;51715;39.432;-77.518;2023-12-14T03:34:08;101722.89;;;2.07;32.61
65013;BME280;51715;39.432;-77.518;2023-12-14T03:36:37;101721.25;;;2.33;32.78
65013;BME280;51715;39.432;-77.518;2023-12-14T03:39:06;101720.33;;;2.36;32.51
65013;BME280;51715;39.432;-77.518;2023-12-14T03:41:35;101721.33;;;1.76;32.57
65013;BME280;51715;39.432;-77.518;2023-12-14T03:44:08;101727.93;;;2.13;32.50
65013;BME280;51715;39.432;-77.518;2023-12-14T03:46:37;101722.79;;;1.97;32.49
65013;BME280;51715;39.432;-77.518;2023-12-14T03:49:06;101724.08;;;2.22;32.56
65013;BME280;51715;39.432;-77.518;2023-12-14T03:51:34;101723.98;;;2.14;32.36
65013;BME280;51715;39.432;-77.518;2023-12-14T03:54:03;101727.06;;;2.17;32.05
65013;BME280;51715;39.432;-77.518;2023-12-14T03:56:32;101728.44;;;2.05;32.41
65013;BME280;51715;39.432;-77.518;2023-12-14T03:59:01;101729.14;;;2.09;32.33
65013;BME280;51715;39.432;-77.518;2023-12-14T04:01:30;101728.84;;;2.29;32.27
65013;BME280;51715;39.432;-77.518;2023-12-14T04:03:58;101729.36;;;2.10;32.20
65013;BME280;51715;39.432;-77.518;2023-12-14T04:06:26;101728.60;;;2.12;32.24
65013;BME280;51715;39.432;-77.518;2023-12-14T04:08:54;101725.05;;;1.97;32.70
65013;BME280;51715;39.432;-77.518;2023-12-14T04:11:22;101726.55;;;2.00;32.33
65013;BME280;51715;39.432;-77.518;2023-12-14T04:13:51;101726.45;;;2.02;32.13
65013;BME280;51715;39.432;-77.518;2023-12-14T04:16:20;101728.64;;;1.90;32.56
65013;BME280;51715;39.432;-77.518;2023-12-14T04:18:48;101732.17;;;1.63;33.33
65013;BME280;51715;39.432;-77.518;2023-12-14T04:21:17;101730.27;;;1.74;33.10
65013;BME280;51715;39.432;-77.518;2023-12-14T04:23:46;101730.43;;;1.63;33.58
65013;BME280;51715;39.432;-77.518;2023-12-14T04:26:14;101736.08;;;1.22;33.95
65013;BME280;51715;39.432;-77.518;2023-12-14T04:28:43;101730.25;;;1.15;34.53
65013;BME280;51715;39.432;-77.518;2023-12-14T04:31:12;101729.85;;;1.04;34.76
65013;BME280;51715;39.432;-77.518;2023-12-14T04:33:40;101731.98;;;0.81;34.62
65013;BME280;51715;39.432;-77.518;2023-12-14T04:36:09;101728.34;;;0.56;34.80
65013;BME280;51715;39.432;-77.518;2023-12-14T04:38:37;101728.72;;;0.80;34.17
65013;BME280;51715;39.432;-77.518;2023-12-14T04:41:05;101728.73;;;1.40;34.21
65013;BME280;51715;39.432;-77.518;2023-12-14T04:43:34;101729.31;;;1.16;33.71
65013;BME280;51715;39.432;-77.518;2023-12-14T04:46:04;101726.87;;;1.17;33.79
65013;BME280;51715;39.432;-77.518;2023-12-14T04:48:33;101727.99;;;0.98;33.70
65013;BME280;51715;39.432;-77.518;2023-12-14T04:51:03;101727.52;;;0.97;33.47
65013;BME280;51715;39.432;-77.518;2023-12-14T04:53:31;101728.26;;;1.15;33.87
65013;BME280;51715;39.432;-77.518;2023-12-14T04:55:59;101730.65;;;1.26;33.54
65013;BME280;51715;39.432;-77.518;2023-12-14T04:58:28;101733.28;;;1.18;33.81
65013;BME280;51715;39.432;-77.518;2023-12-14T05:03:58;101727.20;;;0.78;33.92
65013;BME280;51715;39.432;-77.518;2023-12-14T05:06:26;101726.89;;;1.00;33.17
65013;BME280;51715;39.432;-77.518;2023-12-14T05:08:54;101723.15;;;1.05;32.75
65013;BME280;51715;39.432;-77.518;2023-12-14T05:11:23;101719.92;;;1.11;32.76
65013;BME280;51715;39.432;-77.518;2023-12-14T05:13:51;101721.99;;;1.40;33.26
65013;BME280;51715;39.432;-77.518;2023-12-14T05:16:19;101720.04;;;1.14;33.68
65013;BME280;51715;39.432;-77.518;2023-12-14T05:18:46;101718.97;;;1.54;33.61
65013;BME280;51715;39.432;-77.518;2023-12-14T05:21:18;101716.46;;;1.16;33.83
65013;BME280;51715;39.432;-77.518;2023-12-14T05:23:46;101718.83;;;1.18;33.62
65013;BME280;51715;39.432;-77.518;2023-12-14T05:26:14;101711.78;;;1.08;33.56
65013;BME280;51715;39.432;-77.518;2023-12-14T05:28:43;101706.71;;;1.10;34.06
65013;BME280;51715;39.432;-77.518;2023-12-14T05:31:11;101704.41;;;1.04;34.44
65013;BME280;51715;39.432;-77.518;2023-12-14T05:33:40;101702.96;;;0.98;34.82
65013;BME280;51715;39.432;-77.518;2023-12-14T05:36:09;101699.18;;;0.91;35.28
65013;BME280;51715;39.432;-77.518;2023-12-14T05:38:39;101695.70;;;0.58;35.18
65013;BME280;51715;39.432;-77.518;2023-12-14T05:41:08;101692.63;;;0.62;35.06
65013;BME280;51715;39.432;-77.518;2023-12-14T05:43:36;101697.54;;;-0.02;36.71
65013;BME280;51715;39.432;-77.518;2023-12-14T05:46:05;101688.63;;;-0.17;36.73
65013;BME280;51715;39.432;-77.518;2023-12-14T05:48:33;101693.86;;;0.22;36.26
65013;BME280;51715;39.432;-77.518;2023-12-14T05:51:02;101693.99;;;0.07;36.33
65013;BME280;51715;39.432;-77.518;2023-12-14T05:53:30;101699.94;;;0.10;35.89
65013;BME280;51715;39.432;-77.518;2023-12-14T05:55:58;101701.02;;;0.22;35.45
65013;BME280;51715;39.432;-77.518;2023-12-14T05:58:26;101702.30;;;0.25;35.55
65013;BME280;51715;39.432;-77.518;2023-12-14T06:00:54;101704.78;;;0.40;35.40
65013;BME280;51715;39.432;-77.518;2023-12-14T06:03:22;101700.73;;;0.47;35.29
65013;BME280;51715;39.432;-77.518;2023-12-14T06:05:50;101703.10;;;0.58;34.69
65013;BME280;51715;39.432;-77.518;2023-12-14T06:08:19;101703.74;;;0.64;34.49
65013;BME280;51715;39.432;-77.518;2023-12-14T06:10:47;101712.31;;;0.63;34.72
65013;BME280;51715;39.432;-77.518;2023-12-14T06:13:15;101713.80;;;0.78;34.84
65013;BME280;51715;39.432;-77.518;2023-12-14T06:15:44;101713.75;;;0.53;34.85
65013;BME280;51715;39.432;-77.518;2023-12-14T06:18:12;101713.19;;;0.49;34.81
65013;BME280;51715;39.432;-77.518;2023-12-14T06:20:41;101718.78;;;0.50;34.69
65013;BME280;51715;39.432;-77.518;2023-12-14T06:23:09;101719.09;;;0.12;35.87
65013;BME280;51715;39.432;-77.518;2023-12-14T06:25:37;101719.58;;;-0.51;36.70
65013;BME280;51715;39.432;-77.518;2023-12-14T06:28:05;101723.31;;;-0.21;36.07
65013;BME280;51715;39.432;-77.518;2023-12-14T06:30:34;101728.90;;;-0.56;36.80
65013;BME280;51715;39.432;-77.518;2023-12-14T06:33:02;101731.08;;;-0.23;36.62
65013;BME280;51715;39.432;-77.518;2023-12-14T06:35:30;101741.29;;;0.21;36.54
65013;BME280;51715;39.432;-77.518;2023-12-14T06:37:57;101750.16;;;-0.03;35.78
65013;BME280;51715;39.432;-77.518;2023-12-14T06:40:26;101753.59;;;0.15;35.86
65013;BME280;51715;39.432;-77.518;2023-12-14T06:42:54;101760.06;;;-0.09;36.03
65013;BME280;51715;39.432;-77.518;2023-12-14T06:45:22;101759.10;;;0.02;35.69
65013;BME280;51715;39.432;-77.518;2023-12-14T06:47:50;101761.24;;;-0.03;36.13
65013;BME280;51715;39.432;-77.518;2023-12-14T06:50:18;101768.83;;;-0.03;35.78
65013;BME280;51715;39.432;-77.518;2023-12-14T06:52:46;101766.98;;;-0.06;35.83
65013;BME280;51715;39.432;-77.518;2023-12-14T06:55:14;101769.60;;;-0.04;35.54
65013;BME280;51715;39.432;-77.518;2023-12-14T06:57:43;101763.55;;;-0.03;36.09
65013;BME280;51715;39.432;-77.518;2023-12-14T07:00:13;101762.76;;;0.05;35.97
65013;BME280;51715;39.432;-77.518;2023-12-14T07:02:41;101757.01;;;-0.15;35.83
65013;BME280;51715;39.432;-77.518;2023-12-14T07:05:10;101758.63;;;-0.18;35.64
65013;BME280;51715;39.432;-77.518;2023-12-14T07:07:38;101758.26;;;-0.12;35.59
65013;BME280;51715;39.432;-77.518;2023-12-14T07:10:10;101757.73;;;-0.28;36.26
65013;BME280;51715;39.432;-77.518;2023-12-14T07:12:39;101765.27;;;-0.61;36.81
65013;BME280;51715;39.432;-77.518;2023-12-14T07:15:08;101769.02;;;-0.71;37.42
65013;BME280;51715;39.432;-77.518;2023-12-14T07:17:36;101771.81;;;-1.05;37.65
65013;BME280;51715;39.432;-77.518;2023-12-14T07:20:06;101777.55;;;-0.88;37.47
65013;BME280;51715;39.432;-77.518;2023-12-14T07:22:34;101783.76;;;-0.37;36.98
65013;BME280;51715;39.432;-77.518;2023-12-14T07:25:03;101786.34;;;-0.99;37.96
65013;BME280;51715;39.432;-77.518;2023-12-14T07:27:31;101790.61;;;-0.72;36.79
65013;BME280;51715;39.432;-77.518;2023-12-14T07:30:00;101790.33;;;-0.34;36.35
65013;BME280;51715;39.432;-77.518;2023-12-14T07:32:29;101789.22;;;-0.14;36.02
65013;BME280;51715;39.432;-77.518;2023-12-14T07:34:57;101787.32;;;-0.12;35.92
65013;BME280;51715;39.432;-77.518;2023-12-14T07:37:25;101790.15;;;-0.35;35.77
65013;BME280;51715;39.432;-77.518;2023-12-14T07:39:53;101789.18;;;-0.19;35.58
65013;BME280;51715;39.432;-77.518;2023-12-14T07:42:21;101794.58;;;0.03;35.06
65013;BME280;51715;39.432;-77.518;2023-12-14T07:44:49;101800.35;;;0.21;34.72
65013;BME280;51715;39.432;-77.518;2023-12-14T07:47:17;101802.17;;;0.08;34.62
65013;BME280;51715;39.432;-77.518;2023-12-14T07:49:45;101803.77;;;0.09;34.93
65013;BME280;51715;39.432;-77.518;2023-12-14T07:52:13;101802.97;;;0.12;34.60
65013;BME280;51715;39.432;-77.518;2023-12-14T07:54:42;101802.65;;;0.12;34.60
65013;BME280;51715;39.432;-77.518;2023-12-14T07:57:10;101805.34;;;0.09;34.63
65013;BME280;51715;39.432;-77.518;2023-12-14T07:59:38;101809.70;;;0.00;34.79
65013;BME280;51715;39.432;-77.518;2023-12-14T08:02:07;101810.05;;;0.13;34.93
65013;BME280;51715;39.432;-77.518;2023-12-14T08:04:35;101807.35;;;0.10;35.31
65013;BME280;51715;39.432;-77.518;2023-12-14T08:07:03;101806.78;;;0.39;35.33
65013;BME280;51715;39.432;-77.518;2023-12-14T08:09:32;101807.03;;;-0.09;35.24
65013;BME280;51715;39.432;-77.518;2023-12-14T08:12:00;101807.17;;;0.11;35.19
65013;BME280;51715;39.432;-77.518;2023-12-14T08:14:28;101809.39;;;0.09;35.15
65013;BME280;51715;39.432;-77.518;2023-12-14T08:16:56;101810.48;;;0.03;35.32
65013;BME280;51715;39.432;-77.518;2023-12-14T08:19:24;101808.27;;;-0.31;35.19
65013;BME280;51715;39.432;-77.518;2023-12-14T08:21:52;101810.72;;;-0.06;35.22
65013;BME280;51715;39.432;-77.518;2023-12-14T08:24:21;101808.21;;;-0.10;35.23
65013;BME280;51715;39.432;-77.518;2023-12-14T08:26:50;101808.51;;;-0.25;35.98
65013;BME280;51715;39.432;-77.518;2023-12-14T08:29:18;101808.47;;;-0.16;35.81
65013;BME280;51715;39.432;-77.518;2023-12-14T08:31:46;101812.87;;;-0.25;35.82
65013;BME280;51715;39.432;-77.518;2023-12-14T08:34:14;101810.10;;;-0.34;36.00
65013;BME280;51715;39.432;-77.518;2023-12-14T08:36:42;101810.04;;;-0.31;36.10
65013;BME280;51715;39.432;-77.518;2023-12-14T08:39:11;101803.25;;;-0.81;36.73
65013;BME280;51715;39.432;-77.518;2023-12-14T08:41:39;101797.48;;;-0.50;36.47
65013;BME280;51715;39.432;-77.518;2023-12-14T08:44:07;101794.31;;;-0.87;36.74
65013;BME280;51715;39.432;-77.518;2023-12-14T08:46:45;101792.82;;;-0.98;36.82
65013;BME280;51715;39.432;-77.518;2023-12-14T08:49:14;101798.11;;;-1.69;37.74
65013;BME280;51715;39.432;-77.518;2023-12-14T08:51:42;101799.75;;;-1.42;37.67
65013;BME280;51715;39.432;-77.518;2023-12-14T08:54:10;101800.28;;;-1.04;37.22
65013;BME280;51715;39.432;-77.518;2023-12-14T08:56:39;101802.40;;;-1.80;39.16
65013;BME280;51715;39.432;-77.518;2023-12-14T08:59:07;101805.43;;;-1.19;37.90
65013;BME280;51715;39.432;-77.518;2023-12-14T09:01:35;101804.23;;;-1.13;37.41
65013;BME280;51715;39.432;-77.518;2023-12-14T09:04:03;101802.70;;;-0.97;36.99
65013;BME280;51715;39.432;-77.518;2023-12-14T09:06:31;101802.85;;;-1.12;37.26
65013;BME280;51715;39.432;-77.518;2023-12-14T09:09:00;101798.77;;;-0.76;36.76
65013;BME280;51715;39.432;-77.518;2023-12-14T09:11:28;101806.01;;;-0.56;36.33
65013;BME280;51715;39.432;-77.518;2023-12-14T09:13:57;101808.25;;;-0.93;37.09
65013;BME280;51715;39.432;-77.518;2023-12-14T09:16:25;101810.81;;;-0.67;36.78
65013;BME280;51715;39.432;-77.518;2023-12-14T09:18:53;101812.98;;;-0.57;36.67
65013;BME280;51715;39.432;-77.518;2023-12-14T09:21:21;101812.78;;;-0.51;36.50
65013;BME280;51715;39.432;-77.518;2023-12-14T09:23:50;101818.61;;;-0.49;36.45
65013;BME280;51715;39.432;-77.518;2023-12-14T09:26:18;101824.13;;;-0.45;36.26
65013;BME280;51715;39.432;-77.518;2023-12-14T09:28:45;101817.35;;;-0.85;36.02
65013;BME280;51715;39.432;-77.518;2023-12-14T09:31:13;101824.31;;;-0.77;36.60
65013;BME280;51715;39.432;-77.518;2023-12-14T09:33:42;101830.45;;;-1.19;36.84
65013;BME280;51715;39.432;-77.518;2023-12-14T09:36:10;101828.73;;;-0.81;36.50
65013;BME280;51715;39.432;-77.518;2023-12-14T09:38:38;101824.69;;;-0.77;36.46
65013;BME280;51715;39.432;-77.518;2023-12-14T09:41:06;101823.20;;;-0.72;36.56
65013;BME280;51715;39.432;-77.518;2023-12-14T09:43:35;101826.72;;;-0.67;35.95
65013;BME280;51715;39.432;-77.518;2023-12-14T09:46:04;101829.75;;;-0.90;36.00
65013;BME280;51715;39.432;-77.518;2023-12-14T09:48:32;101827.73;;;-0.82;35.93
65013;BME280;51715;39.432;-77.518;2023-12-14T09:51:01;101829.58;;;-0.76;35.74
65013;BME280;51715;39.432;-77.518;2023-12-14T09:53:29;101833.35;;;-0.71;35.81
65013;BME280;51715;39.432;-77.518;2023-12-14T09:55:57;101837.15;;;-1.02;35.98
65013;BME280;51715;39.432;-77.518;2023-12-14T09:58:25;101843.27;;;-0.91;35.87
65013;BME280;51715;39.432;-77.518;2023-12-14T10:00:53;101845.37;;;-0.61;35.81
65013;BME280;51715;39.432;-77.518;2023-12-14T10:03:24;101852.97;;;-0.89;36.63
65013;BME280;51715;39.432;-77.518;2023-12-14T10:05:52;101847.37;;;-0.76;36.41
65013;BME280;51715;39.432;-77.518;2023-12-14T10:08:21;101851.18;;;-0.70;36.20
65013;BME280;51715;39.432;-77.518;2023-12-14T10:10:52;101853.59;;;-0.69;35.87
65013;BME280;51715;39.432;-77.518;2023-12-14T10:13:22;101857.32;;;-0.87;36.09
65013;BME280;51715;39.432;-77.518;2023-12-14T10:16:03;101855.66;;;-0.80;35.98
65013;BME280;51715;39.432;-77.518;2023-12-14T10:18:32;101858.29;;;-1.08;36.52
65013;BME280;51715;39.432;-77.518;2023-12-14T10:21:01;101858.16;;;-1.18;36.65
65013;BME280;51715;39.432;-77.518;2023-12-14T10:23:29;101856.46;;;-1.37;36.98
65013;BME280;51715;39.432;-77.518;2023-12-14T10:25:58;101862.33;;;-1.53;37.52
65013;BME280;51715;39.432;-77.518;2023-12-14T10:28:26;101866.02;;;-1.30;37.20
65013;BME280;51715;39.432;-77.518;2023-12-14T10:30:55;101869.95;;;-1.70;37.91
65013;BME280;51715;39.432;-77.518;2023-12-14T10:33:23;101870.06;;;-1.73;37.34
65013;BME280;51715;39.432;-77.518;2023-12-14T10:35:51;101868.74;;;-1.69;36.68
65013;BME280;51715;39.432;-77.518;2023-12-14T10:38:20;101869.63;;;-1.66;36.81
65013;BME280;51715;39.432;-77.518;2023-12-14T10:40:48;101868.00;;;-1.26;36.83
65013;BME280;51715;39.432;-77.518;2023-12-14T10:43:17;101867.85;;;-2.20;38.34
65013;BME280;51715;39.432;-77.518;2023-12-14T10:45:47;101868.54;;;-1.65;37.37
65013;BME280;51715;39.432;-77.518;2023-12-14T10:48:17;101874.73;;;-1.07;36.73
65013;BME280;51715;39.432;-77.518;2023-12-14T10:50:46;101870.89;;;-1.41;36.96
65013;BME280;51715;39.432;-77.518;2023-12-14T10:53:15;101870.49;;;-1.78;37.07
65013;BME280;51715;39.432;-77.518;2023-12-14T10:55:45;101873.41;;;-1.30;36.82
65013;BME280;51715;39.432;-77.518;2023-12-14T10:58:15;101877.71;;;-1.24;36.64
65013;BME280;51715;39.432;-77.518;2023-12-14T11:00:44;101886.90;;;-1.49;36.85
65013;BME280;51715;39.432;-77.518;2023-12-14T11:03:14;101897.07;;;-1.19;36.73
65013;BME280;51715;39.432;-77.518;2023-12-14T11:05:42;101893.95;;;-0.95;36.89
65013;BME280;51715;39.432;-77.518;2023-12-14T11:08:10;101896.97;;;-1.35;36.63
65013;BME280;51715;39.432;-77.518;2023-12-14T11:10:40;101896.98;;;-1.08;36.47
65013;BME280;51715;39.432;-77.518;2023-12-14T11:13:09;101899.11;;;-1.26;36.04
65013;BME280;51715;39.432;-77.518;2023-12-14T11:15:39;101901.24;;;-1.24;35.81
65013;BME280;51715;39.432;-77.518;2023-12-14T11:18:25;101899.25;;;-0.98;35.86
65013;BME280;51715;39.432;-77.518;2023-12-14T11:20:56;101899.65;;;-1.22;36.03
65013;BME280;51715;39.432;-77.518;2023-12-14T11:23:35;101900.13;;;-1.18;35.97
65013;BME280;51715;39.432;-77.518;2023-12-14T11:26:05;101902.82;;;-1.20;35.91
65013;BME280;51715;39.432;-77.518;2023-12-14T11:28:35;101906.51;;;-1.15;35.86
65013;BME280;51715;39.432;-77.518;2023-12-14T11:31:04;101913.02;;;-0.75;35.69
65013;BME280;51715;39.432;-77.518;2023-12-14T11:33:34;101917.30;;;-1.24;35.81
65013;BME280;51715;39.432;-77.518;2023-12-14T11:36:03;101918.01;;;-1.26;35.95
65013;BME280;51715;39.432;-77.518;2023-12-14T11:38:32;101922.09;;;-0.99;35.95
65013;BME280;51715;39.432;-77.518;2023-12-14T11:41:01;101918.66;;;-1.16;35.85
65013;BME280;51715;39.432;-77.518;2023-12-14T11:43:33;101923.48;;;-1.14;35.68
65013;BME280;51715;39.432;-77.518;2023-12-14T11:46:06;101920.07;;;-1.09;35.58
65013;BME280;51715;39.432;-77.518;2023-12-14T11:48:34;101921.87;;;-1.14;35.68
65013;BME280;51715;39.432;-77.518;2023-12-14T11:51:02;101918.30;;;-1.14;35.63
65013;BME280;51715;39.432;-77.518;2023-12-14T11:53:30;101921.06;;;-1.16;35.60
65013;BME280;51715;39.432;-77.518;2023-12-14T11:56:00;101924.46;;;-1.14;35.50
65013;BME280;51715;39.432;-77.518;2023-12-14T11:58:27;101924.30;;;-1.21;35.75
65013;BME280;51715;39.432;-77.518;2023-12-14T12:00:56;101924.28;;;-0.99;35.60
65013;BME280;51715;39.432;-77.518;2023-12-14T12:03:37;101925.68;;;-1.20;35.80
65013;BME280;51715;39.432;-77.518;2023-12-14T12:06:06;101923.72;;;-1.16;35.82
65013;BME280;51715;39.432;-77.518;2023-12-14T12:08:41;101921.35;;;-1.36;35.89
65013;BME280;51715;39.432;-77.518;2023-12-14T12:11:10;101922.43;;;-1.06;36.04
65013;BME280;51715;39.432;-77.518;2023-12-14T12:13:38;101923.52;;;-1.24;35.95
65013;BME280;51715;39.432;-77.518;2023-12-14T12:16:07;101922.17;;;-0.97;35.75
65013;BME280;51715;39.432;-77.518;2023-12-14T12:18:35;101924.02;;;-1.18;35.71
65013;BME280;51715;39.432;-77.518;2023-12-14T12:21:04;101926.85;;;-1.17;35.71
65013;BME280;51715;39.432;-77.518;2023-12-14T12:23:32;101929.52;;;-1.22;35.79
65013;BME280;51715;39.432;-77.518;2023-12-14T12:26:00;101930.73;;;-1.20;35.85
65013;BME280;51715;39.432;-77.518;2023-12-14T12:28:30;101935.95;;;-1.22;35.95
65013;BME280;51715;39.432;-77.518;2023-12-14T12:30:59;101942.94;;;-1.04;36.35
65013;BME280;51715;39.432;-77.518;2023-12-14T12:33:27;101946.62;;;-1.15;36.26
65013;BME280;51715;39.432;-77.518;2023-12-14T12:35:56;101945.26;;;-0.97;36.56
65013;BME280;51715;39.432;-77.518;2023-12-14T12:38:24;101947.66;;;-1.09;36.81
65013;BME280;51715;39.432;-77.518;2023-12-14T12:40:53;101949.88;;;-1.17;36.50
65013;BME280;51715;39.432;-77.518;2023-12-14T12:43:21;101952.63;;;-0.85;36.28
65013;BME280;51715;39.432;-77.518;2023-12-14T12:45:50;101954.24;;;-0.80;36.22